Stanislav Soucek

Scout - Sparta Prague
20 Feb 2028
Sunday
Process

Personality

Adaptability (3) Ambition (1) Controversy (16) Loyalty (6) Pressure (18) Professionalism (18) Sportsmanship (15) Temperament (5)

Profile

Coaching Style Democratic
License Continental Pro
Determination 11
Man Management 14
Motivating 10
Discipline 7
Job Satisfaction
100%
Fatigue
0%
Role Scout
Wage 109.5K p/w
Contract 14.03.2030

Performance

Behaviour Good
Training Effectiveness
52%
Player Development
35%
Injury Prevention
45%
Tactical Implementation
30%

Recent Events

Attended a recruitment meeting now
Attended a recruitment meeting 7d ago
Recommended a transfer target 7d ago
Recommended a transfer target 7d ago
Attended a recruitment meeting 14d ago
Recommended a transfer target 14d ago
Recommended a transfer target 14d ago
Recommended a transfer target 21d ago

Currently Monitoring

158
Player Club Status Ability Confidence Watched Last Observed Latest Vote
Dennis Owusu Banik Ostrava Active 117 / 115 65% 1 10.01.2028 Approve
Caleb Yirenkyi Coventry City Active 143 / 145 40% 5 15.12.2027 -
Musa Malik Ikorodu City Active 96 / 93 40% 2 15.12.2027 -
Josh Nichols Tranmere Rovers Active 120 / 133 40% 2 15.12.2027 -
Mateo Silvetti Los Angeles Football Club Active 114 / 132 40% 3 12.12.2027 -
Oscar Otero Atletico Venezuela Active 106 / 108 40% 3 11.12.2027 -
Shea Lacey Wolverhampton Active 132 / 143 40% 2 11.12.2027 -
Álex Marchal Real Sociedad Active 107 / 125 40% 1 11.12.2027 -
Dylan Cabral Arsenal Active 93 / 99 40% 2 10.12.2027 -
Archie Gray Derby County Active 147 / 146 40% 3 10.12.2027 -
Luis Otávio Colorado Rapids Active 112 / 109 40% 5 08.12.2027 -
Clement Bischoff Red Bull Salzburg Active 122 / 134 40% 2 08.12.2027 -
Santiago López Independiente Active 118 / 122 40% 3 06.12.2027 -
Themba Dala Ajax Cape Town Active 122 / 118 40% 1 06.12.2027 -
Bahia Criciuma Active 115 / 128 40% 1 04.12.2027 -
Gonçalo Moreira Benfica Active 119 / 123 40% 1 04.12.2027 -
Joel Ezra Enyimba Active 100 / 99 40% 3 01.12.2027 -
Lion Beqiri Falkenberg Active 110 / 98 40% 1 28.11.2027 -
Igor Tyjon Doncaster Rovers Active 121 / 132 40% 1 28.11.2027 -
Ronan Kpakio Cardiff City Active 124 / 127 40% 1 24.11.2027 -
Hervin Goyes Deportivo Pasto Active 108 / 118 40% 4 16.11.2027 -
Hassan Beja AFC Leopards Active 90 / 89 40% 1 16.11.2027 -
Mateo Peralta Danubio Active 115 / 112 40% 5 13.11.2027 -
Mikkel Hope Haugesund Active 114 / 114 40% 1 11.11.2027 -
Rio Ngumoha Stockport County Active 138 / 153 40% 1 11.11.2027 -
Tomás Aranda Boca Juniors Active 113 / 120 40% 1 08.11.2027 -
Ethan Williams Peterborough United Active 124 / 125 40% 2 07.11.2027 -
Diogo Guzmán Montevideo City Torque Active 123 / 122 40% 3 05.11.2027 -
Bop Guèye Haugesund Active 113 / 115 40% 3 04.11.2027 -
Gustavo Lozano Metropolitanos Active 101 / 97 40% 2 01.11.2027 -
Mfundo Vilakazi Kaizer Chiefs Active 115 / 119 40% 1 01.11.2027 -
Jayden Danns Wigan Athletic Active 140 / 140 40% 1 31.10.2027 -
Kevin Angulo America de Cali Active 95 / 106 40% 1 31.10.2027 -
Sunday Aniebet Enyimba Active 85 / 102 40% 4 29.10.2027 -
Alejandro Almaraz Nueva Chicago Active 115 / 123 40% 1 24.10.2027 -
Sadiq Auwal Niger Tornadoes Active 90 / 95 40% 1 07.10.2027 -
Esteban de Lima Tacuarembo Active 91 / 99 40% 1 07.09.2027 -
Víctor Guzmán Sporting CP Active 91 / 108 40% 1 06.07.2027 -
Edoardo Motta Lazio Active 128 / 136 40% 1 31.05.2027 -
Shea Charles Southampton Active 147 / 139 40% 7 29.05.2027 -
Callum O'Hare Sheffield United Active 138 / 123 40% 2 29.05.2027 -
Jack McGlynn Stoke City Active 123 / 136 40% 2 28.05.2027 -
Hwang Hee-Chan Wolverhampton Active 141 / 143 40% 3 27.05.2027 Monitor
Jason Knight Bristol City Active 139 / 117 40% 2 27.05.2027 -
Andrea Carboni Monza Active 135 / 132 40% 3 25.05.2027 -
Kenny Tete Fulham Active 137 / 140 40% 10 25.05.2027 -
Florentino Luís Ipswich Town Active 133 / 143 40% 8 25.05.2027 -
Kwadwo Baah Watford Active 121 / 137 40% 3 25.05.2027 -
Ronnie Edwards Queens Park Rangers Active 134 / 136 40% 2 23.05.2027 -
Japhet Tanganga Sheffield United Active 132 / 142 40% 3 23.05.2027 -
Alfie Doughty Millwall Active 134 / 138 40% 1 23.05.2027 -
Welington Southampton Active 139 / 122 40% 8 22.05.2027 -
Daniel Vernattus Metalist Active 83 / 91 40% 2 22.05.2027 -
Adam Bakoune Ospitaletto Active 95 / 97 40% 2 22.05.2027 -
Ibrahim Sangaré Nottingham Forest Active 149 / 136 40% 1 22.05.2027 -
Daniel Kelly Oxford United Active 120 / 117 40% 2 20.05.2027 -
Edoardo Bove Watford Active 122 / 140 40% 4 17.05.2027 -
Bobby Thomas Coventry City Active 122 / 132 40% 2 17.05.2027 -
Nicolas Madsen Queens Park Rangers Active 119 / 121 40% 1 17.05.2027 -
Christos Mouzakitis Hull City Active 140 / 135 40% 4 16.05.2027 -
Keagan Phiri Platinum Stars Active 109 / 101 40% 2 16.05.2027 -
Martim Cunha Porto Active 98 / 117 40% 1 16.05.2027 -
Marcelo Allende Mamelodi Sundowns Active 140 / 135 40% 1 15.05.2027 -
Callum Doyle Wrexham Active 131 / 126 40% 5 14.05.2027 -
Milan van Ewijk Mansfield Town Active 142 / 133 40% 3 14.05.2027 -
Sascha Britschgi Padova Active 127 / 133 40% 2 12.05.2027 -
Kristoffer Lund Birmingham Active 116 / 134 40% 2 12.05.2027 -
Hlompho Lorch Ajax Cape Town Active 101 / 95 40% 1 12.05.2027 -
Lewis Morgan SuperSport United Active 126 / 130 40% 7 10.05.2027 -
Azor Matusiwa Ipswich Town Active 137 / 142 40% 1 10.05.2027 -
Saša Lukić Ipswich Town Active 144 / 135 40% 8 08.05.2027 -
Alessio Zerbin Frosinone Active 136 / 129 40% 1 08.05.2027 -
Kasey McAteer Ipswich Town Active 124 / 120 40% 2 07.05.2027 -
Ilario Monterisi Frosinone Active 122 / 134 40% 2 07.05.2027 -
Mattéo Tramoni Pisa Active 136 / 122 40% 1 07.05.2027 -
Ilyas Ansah Hull City Active 142 / 128 40% 2 03.05.2027 -
Tiago Freitas Benfica Active 108 / 111 40% 2 03.05.2027 -
Juan Giménez Celta Active 112 / 129 40% 1 03.05.2027 -
Toby Collyer West Bromwich Albion Active 136 / 126 40% 1 30.04.2027 -
Tomáš Rigo Stoke City Active 122 / 131 40% 3 28.04.2027 -
Ola Aina Nottingham Forest Active 147 / 146 40% 4 26.04.2027 -
Luke McNally Bristol City Active 124 / 136 40% 3 26.04.2027 -
Riley Owen Trento Active 109 / 108 40% 1 25.04.2027 -
David Ozoh Derby County Active 128 / 137 40% 1 24.04.2027 -
Bertrand Traoré Sunderland Active 140 / 145 40% 2 23.04.2027 -
Zian Flemming Ipswich Town Active 145 / 132 40% 5 23.04.2027 -
Leif Davis Ipswich Town Active 145 / 134 40% 1 20.04.2027 -
Tyrese Campbell Sheffield United Active 123 / 120 40% 2 19.04.2027 -
Lukáš Červ Viktoria Plzen Active 125 / 128 40% 5 18.04.2027 -
Andre Brooks Sheffield United Active 140 / 130 40% 1 15.04.2027 -
Keagan Tau Ajax Cape Town Active 83 / 94 40% 1 14.04.2027 -
Adam Randell Bristol City Active 128 / 121 40% 1 10.04.2027 -
Che Adams Torino Active 141 / 134 40% 2 08.04.2027 -
Dara O'Shea Ipswich Town Active 139 / 138 40% 3 07.04.2027 -
Oliver Skipp Leicester City Active 139 / 140 40% 2 05.04.2027 -
Jacques Ekomié Wrexham Active 138 / 131 40% 3 04.04.2027 -
Chris Mepham West Bromwich Albion Active 126 / 127 40% 1 04.04.2027 -
Callum Brittain Middlesbrough Active 122 / 119 40% 2 02.04.2027 -
Tommy Conway Middlesbrough Active 130 / 124 40% 1 02.04.2027 -
Marquinhos Spartak Moscow Active 123 / 134 40% 2 01.04.2027 -
Gonçalo Oliveira Benfica Active 119 / 109 40% 1 26.03.2027 -
Valentin Atangana Al-Ahli Active 142 / 136 40% 1 26.03.2027 -
Kazunari Kita Real Sociedad Active 89 / 114 40% 1 26.03.2027 -
Pedrinho Shakhtar Active 143 / 127 40% 1 25.03.2027 -
Ben Sheaf Wrexham Active 128 / 126 40% 2 24.03.2027 -
Davide Bartesaghi AC Milan Active 134 / 142 40% 1 24.03.2027 -
Giorgi Chakvetadze Watford Active 118 / 120 40% 1 20.03.2027 -
Rúben Neves Al-Hilal Active 145 / 151 40% 3 18.03.2027 -
Karel Spáčil Viktoria Plzen Active 133 / 137 40% 2 18.03.2027 -
Percy Jali Free State Stars Active 82 / 113 40% 1 17.03.2027 -
Christ Inao Oulaï Fiorentina Active 130 / 138 40% 1 17.03.2027 -
Yusuke Matsuo Esteghlal Active 130 / 131 40% 1 15.03.2027 -
Sorba Thomas Stoke City Active 131 / 141 40% 1 11.03.2027 -
Harry Clarke Preston Active 137 / 118 40% 1 09.03.2027 -
Joel McGregor Swindon Town Active 90 / 109 40% 1 08.03.2027 -
Leandrinho Sharjah Active 113 / 115 40% 1 08.03.2027 -
Ethan Galbraith Swansea City Active 119 / 126 40% 3 05.03.2027 -
Aidan Morris Middlesbrough Active 125 / 140 40% 2 02.03.2027 -
Franck Kessié Atalanta Active 149 / 148 40% 1 27.02.2027 -
Marlon Gomes Shakhtar Active 138 / 140 40% 5 26.02.2027 -
Christian Krasnodar Active 141 / 139 40% 3 22.02.2027 -
Joachim Andersen Fulham Active 151 / 154 40% 1 22.02.2027 -
Yacine Adli Al-Shabab Active 126 / 126 40% 2 19.02.2027 -
Josh Brownhill Al-Shabab Active 132 / 134 40% 1 19.02.2027 -
Moisés CSKA Moscow Active 132 / 122 40% 2 15.02.2027 -
Tomáš Souček West Ham United Active 138 / 125 40% 1 09.02.2027 -
Aubrey Modiba Mamelodi Sundowns Active 134 / 135 40% 1 06.02.2027 -
Max Bird Birmingham Active 120 / 143 40% 1 06.02.2027 -
Rubén Duarte Legia Active 130 / 123 40% 1 01.02.2027 -
Ross McCrorie Bristol City Active 112 / 117 40% 1 31.12.2026 -
Kialonda Gaspar Lecce Active 133 / 136 40% 1 15.12.2026 -
Oleksandr Pikhalionok Dynamo Kyiv Active 135 / 133 40% 1 09.12.2026 -
João Victor CSKA Moscow Active 118 / 124 40% 1 06.12.2026 -
Gift Ngcobo Ajax Cape Town Active 125 / 124 40% 1 05.12.2026 -
Mauro Arambarri River Plate Active 154 / 155 40% 1 05.12.2026 -
Wendel Zenit Active 149 / 135 40% 1 04.12.2026 -
Son Ludogorets Active 125 / 125 40% 1 01.12.2026 -
Samú Al-Nassr Active 157 / 147 40% 1 01.12.2026 -
Alexandr Chernikov Krasnodar Active 126 / 127 40% 2 30.11.2026 -
Gustavo Mantuan Zenit Active 124 / 133 40% 1 29.11.2026 -
Bernardo Vital Jagiellonia Active 125 / 130 40% 1 22.11.2026 -
Fabián Paris Saint-Germain Active 154 / 157 40% 1 22.11.2026 -
Adrián Marín Persepolis Active 113 / 132 40% 2 18.11.2026 -
Sergej Milinković-Savić Al-Hilal Active 146 / 146 40% 2 18.11.2026 -
Éric Bailly Columbus Crew Active 138 / 139 40% 1 16.11.2026 -
Facundo Mallo Rosario Central Active 126 / 123 40% 1 13.11.2026 -
Bradley Tau SuperSport United Active 119 / 120 40% 1 12.11.2026 -
Volodymyr Brazhko Dynamo Kyiv Active 121 / 126 40% 1 03.11.2026 -
Eduard Löwen San Jose Earthquakes Active 141 / 142 40% 2 31.10.2026 -
Bryan Ramírez FC Cincinnati Active 141 / 121 40% 1 29.10.2026 -
Václav Jemelka Viktoria Plzen Active 131 / 128 40% 1 29.10.2026 -
Anton Salétros Chicago Fire Active 124 / 135 40% 1 25.10.2026 -
Cristian Roldan Seattle Sounders Active 119 / 131 40% 2 22.10.2026 -
Lucas Sanabria LA Galaxy Active 134 / 124 40% 1 17.10.2026 -
Nicolás Romero Minnesota United FC Active 115 / 124 40% 1 11.10.2026 -
Facundo Mura Inter Miami CF Active 111 / 136 40% 1 05.10.2026 -
Miles Robinson FC Cincinnati Active 131 / 125 40% 1 09.09.2026 -
Tomáš Koubek Slovan Liberec Active 115 / 131 62% 1 31.08.2026 Approve